createdAt,value
2023-05-19T00:01:10.436Z,12.30
2023-05-19T00:03:36.918Z,12.25
2023-05-19T00:06:04.177Z,12.30
2023-05-19T00:08:31.695Z,12.29
2023-05-19T00:10:59.289Z,12.15
2023-05-19T00:13:25.779Z,12.14
2023-05-19T00:15:52.473Z,12.14
2023-05-19T00:18:20.048Z,12.13
2023-05-19T00:20:46.643Z,12.12
2023-05-19T00:23:13.238Z,12.17
2023-05-19T00:25:39.723Z,12.14
2023-05-19T00:28:07.408Z,12.12
2023-05-19T00:30:34.130Z,12.12
2023-05-19T00:33:01.616Z,12.13
2023-05-19T00:35:28.100Z,12.08
2023-05-19T00:37:54.743Z,12.13
2023-05-19T00:40:22.351Z,12.02
2023-05-19T00:42:48.815Z,11.95
2023-05-19T00:45:16.524Z,11.93
2023-05-19T00:47:43.095Z,11.88
2023-05-19T00:50:09.551Z,11.87
2023-05-19T00:52:36.269Z,11.89
2023-05-19T00:55:02.711Z,11.91
2023-05-19T00:57:29.451Z,11.78
2023-05-19T00:59:57.043Z,11.71
2023-05-19T01:02:24.786Z,11.67
2023-05-19T01:04:51.356Z,11.75
2023-05-19T01:07:18.785Z,11.85
2023-05-19T01:09:45.224Z,11.58
2023-05-19T01:12:11.999Z,11.50
2023-05-19T01:14:38.583Z,11.41
2023-05-19T01:17:06.152Z,11.37
2023-05-19T01:19:32.722Z,11.30
2023-05-19T01:21:59.465Z,11.32
2023-05-19T01:24:26.990Z,11.39
2023-05-19T01:26:55.662Z,11.37
2023-05-19T01:29:23.181Z,11.33
2023-05-19T01:31:49.781Z,11.34
2023-05-19T01:34:16.351Z,11.44
2023-05-19T01:36:42.800Z,11.43
2023-05-19T01:39:09.285Z,11.27
2023-05-19T01:41:35.796Z,11.35
2023-05-19T01:44:02.246Z,11.32
2023-05-19T01:46:28.761Z,11.31
2023-05-19T01:48:55.911Z,11.36
2023-05-19T01:51:23.514Z,11.36
2023-05-19T01:53:51.094Z,11.43
2023-05-19T01:56:17.597Z,11.42
2023-05-19T01:58:44.078Z,11.36
2023-05-19T02:01:10.657Z,11.48
2023-05-19T02:03:37.439Z,11.46
2023-05-19T02:06:03.932Z,11.38
2023-05-19T02:08:30.630Z,11.32
2023-05-19T02:10:57.215Z,11.37
2023-05-19T02:13:23.655Z,11.40
2023-05-19T02:15:50.458Z,11.39
2023-05-19T02:18:18.026Z,11.40
2023-05-19T02:20:45.564Z,11.36
2023-05-19T02:23:12.159Z,11.29
2023-05-19T02:25:38.760Z,11.33
2023-05-19T02:28:05.275Z,11.28
2023-05-19T02:30:32.281Z,11.27
2023-05-19T02:32:59.619Z,11.27
2023-05-19T02:35:27.113Z,11.20
2023-05-19T02:37:53.583Z,11.17
2023-05-19T02:40:20.282Z,11.17
2023-05-19T02:42:46.740Z,11.20
2023-05-19T02:45:13.483Z,11.22
2023-05-19T02:47:40.152Z,11.18
2023-05-19T02:50:07.675Z,11.17
2023-05-19T02:52:35.237Z,11.25
2023-05-19T02:55:01.819Z,11.31
2023-05-19T02:57:29.403Z,11.23
2023-05-19T02:59:56.008Z,11.13
2023-05-19T03:02:24.641Z,11.14
2023-05-19T03:04:51.165Z,11.16
2023-05-19T03:07:18.762Z,11.18
2023-05-19T03:09:45.375Z,11.15
2023-05-19T03:12:13.986Z,11.04
2023-05-19T03:14:40.500Z,11.12
2023-05-19T03:17:07.191Z,11.02
2023-05-19T03:19:34.746Z,11.03
2023-05-19T03:22:01.336Z,11.09
2023-05-19T03:24:27.931Z,11.09
2023-05-19T03:26:55.520Z,11.10
2023-05-19T03:29:22.134Z,11.06
2023-05-19T03:31:51.694Z,11.09
2023-05-19T03:34:18.143Z,11.10
2023-05-19T03:36:44.600Z,11.15
2023-05-19T03:39:11.455Z,11.13
2023-05-19T03:41:38.070Z,11.12
2023-05-19T03:44:06.676Z,11.14
2023-05-19T03:46:33.554Z,11.23
2023-05-19T03:49:00.864Z,11.22
2023-05-19T03:51:28.464Z,11.16
2023-05-19T03:53:54.998Z,11.07
2023-05-19T03:56:21.429Z,11.03
2023-05-19T03:58:51.246Z,11.12
2023-05-19T04:01:18.068Z,11.07
2023-05-19T04:03:45.468Z,11.03
2023-05-19T04:06:13.015Z,10.99
2023-05-19T04:08:39.576Z,10.98
2023-05-19T04:11:06.419Z,10.86
2023-05-19T04:13:32.925Z,10.90
2023-05-19T04:15:59.399Z,10.88
2023-05-19T04:18:27.593Z,10.83
2023-05-19T04:20:55.447Z,10.90
2023-05-19T04:23:21.895Z,11.04
2023-05-19T04:25:48.333Z,10.98
2023-05-19T04:28:14.792Z,10.98
2023-05-19T04:30:41.269Z,11.06
2023-05-19T04:33:07.864Z,11.08
2023-05-19T04:35:34.496Z,11.07
2023-05-19T04:38:01.708Z,11.09
2023-05-19T04:40:29.251Z,11.23
2023-05-19T04:42:56.863Z,11.17
2023-05-19T04:45:23.492Z,11.21
2023-05-19T04:47:51.116Z,11.09
2023-05-19T04:50:18.656Z,11.12
2023-05-19T04:52:46.231Z,11.19
2023-05-19T04:55:12.831Z,11.16
2023-05-19T04:57:39.275Z,11.20
2023-05-19T05:00:06.001Z,11.25
2023-05-19T05:02:32.630Z,11.28
2023-05-19T05:04:59.239Z,11.33
2023-05-19T05:07:25.825Z,11.42
2023-05-19T05:09:53.454Z,11.49
2023-05-19T05:12:20.025Z,11.52
2023-05-19T05:14:48.641Z,11.58
2023-05-19T05:17:15.107Z,11.62
2023-05-19T05:19:41.563Z,11.72
2023-05-19T05:22:08.455Z,11.82
2023-05-19T05:24:35.047Z,11.90
2023-05-19T05:27:01.741Z,11.96
2023-05-19T05:29:28.721Z,12.01
2023-05-19T05:31:55.802Z,12.04
2023-05-19T05:34:23.382Z,12.11
2023-05-19T05:36:49.979Z,12.18
2023-05-19T05:39:18.577Z,12.30
2023-05-19T05:41:45.011Z,12.40
2023-05-19T05:44:11.488Z,12.47
2023-05-19T05:46:38.172Z,12.59
2023-05-19T05:49:04.702Z,12.70
2023-05-19T05:51:31.151Z,12.81
2023-05-19T05:53:57.647Z,13.01
2023-05-19T05:56:25.275Z,13.18
2023-05-19T05:58:51.704Z,13.33
2023-05-19T06:01:18.201Z,13.46
2023-05-19T06:03:44.777Z,13.61
2023-05-19T06:06:11.323Z,13.79
2023-05-19T06:08:37.807Z,13.95
2023-05-19T06:11:04.257Z,14.03
2023-05-19T06:13:30.829Z,14.04
2023-05-19T06:15:58.435Z,14.02
2023-05-19T06:18:26.011Z,13.96
2023-05-19T06:20:52.462Z,13.90
2023-05-19T06:23:18.992Z,13.83
2023-05-19T06:25:45.832Z,13.84
2023-05-19T06:28:14.430Z,13.89
2023-05-19T06:30:40.911Z,13.87
2023-05-19T06:33:07.423Z,13.86
2023-05-19T06:35:33.936Z,13.92
2023-05-19T06:38:00.409Z,13.94
2023-05-19T06:40:26.895Z,14.05
2023-05-19T06:42:53.360Z,14.22
2023-05-19T06:45:19.801Z,14.25
2023-05-19T06:47:46.341Z,14.29
2023-05-19T06:50:12.876Z,14.29
2023-05-19T06:52:39.390Z,14.36
2023-05-19T06:55:05.958Z,14.47
2023-05-19T06:57:32.529Z,14.58
2023-05-19T06:59:58.965Z,14.60
2023-05-19T07:02:25.732Z,14.67
2023-05-19T07:04:53.305Z,14.63
2023-05-19T07:07:19.895Z,14.61
2023-05-19T07:09:48.472Z,14.68
2023-05-19T07:12:14.954Z,14.78
2023-05-19T07:14:41.424Z,14.84
2023-05-19T07:17:07.878Z,14.85
2023-05-19T07:19:34.338Z,15.01
2023-05-19T07:22:00.799Z,15.06
2023-05-19T07:24:27.258Z,15.04
2023-05-19T07:26:53.739Z,15.02
2023-05-19T07:29:21.233Z,15.07
2023-05-19T07:31:47.743Z,14.91
2023-05-19T07:34:14.275Z,14.79
2023-05-19T07:36:40.985Z,14.86
2023-05-19T07:39:07.513Z,14.89
2023-05-19T07:41:36.274Z,14.88
2023-05-19T07:44:02.937Z,14.79
2023-05-19T07:46:29.497Z,14.86
2023-05-19T07:48:57.051Z,14.84
2023-05-19T07:51:23.505Z,14.79
2023-05-19T07:53:50.043Z,14.83
2023-05-19T07:56:16.484Z,14.92
2023-05-19T07:58:43.438Z,15.02
2023-05-19T08:01:10.045Z,15.08
2023-05-19T08:03:36.608Z,15.15
2023-05-19T08:06:04.222Z,15.21
2023-05-19T08:08:30.795Z,15.30
2023-05-19T08:10:57.261Z,15.36
2023-05-19T08:13:23.717Z,15.37
2023-05-19T08:15:50.219Z,15.43
2023-05-19T08:18:17.145Z,15.51
2023-05-19T08:20:43.740Z,15.52
2023-05-19T08:23:10.326Z,15.59
2023-05-19T08:25:36.807Z,15.61
2023-05-19T08:28:03.298Z,15.66
2023-05-19T08:30:29.763Z,15.77
2023-05-19T08:32:56.209Z,15.90
2023-05-19T08:35:22.782Z,16.04
2023-05-19T08:37:49.233Z,16.08
2023-05-19T08:40:15.705Z,16.13
2023-05-19T08:42:42.536Z,16.17
2023-05-19T08:45:08.971Z,16.16
2023-05-19T08:47:35.507Z,16.22
2023-05-19T08:50:02.009Z,16.30
2023-05-19T08:52:28.485Z,16.36
2023-05-19T08:54:54.932Z,16.47
2023-05-19T08:57:21.398Z,16.42
2023-05-19T08:59:47.843Z,16.28
2023-05-19T09:02:14.317Z,16.26
2023-05-19T09:04:41.499Z,16.28
2023-05-19T09:07:08.044Z,16.41
2023-05-19T09:09:34.490Z,16.47
2023-05-19T09:12:00.972Z,16.51
2023-05-19T09:14:27.433Z,16.47
2023-05-19T09:16:53.933Z,16.45
2023-05-19T09:19:20.481Z,16.37
2023-05-19T09:21:46.955Z,16.27
2023-05-19T09:24:14.130Z,16.13
2023-05-19T09:26:40.616Z,15.96
2023-05-19T09:29:07.096Z,15.84
2023-05-19T09:31:33.538Z,15.86
2023-05-19T09:33:59.985Z,16.07
2023-05-19T09:36:26.452Z,16.13
2023-05-19T09:38:53.621Z,16.13
2023-05-19T09:41:20.071Z,16.22
2023-05-19T09:43:46.676Z,16.35
2023-05-19T09:46:14.616Z,16.50
2023-05-19T09:48:41.408Z,16.64
2023-05-19T09:51:08.045Z,16.87
2023-05-19T09:53:35.172Z,17.01
2023-05-19T09:56:01.753Z,17.17
2023-05-19T09:58:28.256Z,17.34
2023-05-19T10:00:54.750Z,17.49
2023-05-19T10:03:21.219Z,17.64
2023-05-19T10:05:47.683Z,17.79
2023-05-19T10:08:14.122Z,17.85
2023-05-19T10:10:40.587Z,17.90
2023-05-19T10:13:07.169Z,17.96
2023-05-19T10:15:40.858Z,17.94
2023-05-19T10:18:13.284Z,17.94
2023-05-19T10:20:40.242Z,17.89
2023-05-19T10:23:06.794Z,17.87
2023-05-19T10:25:33.339Z,17.94
2023-05-19T10:27:59.961Z,17.94
2023-05-19T10:30:26.434Z,17.99
2023-05-19T10:32:52.946Z,17.98
2023-05-19T10:35:19.467Z,17.99
2023-05-19T10:37:46.832Z,18.04
2023-05-19T10:40:13.427Z,18.01
2023-05-19T10:42:39.872Z,18.07
2023-05-19T10:45:06.380Z,18.17
2023-05-19T10:47:33.238Z,18.13
2023-05-19T10:50:01.811Z,18.17
2023-05-19T10:52:28.281Z,18.23
2023-05-19T10:54:55.057Z,18.28
2023-05-19T10:57:21.552Z,18.28
2023-05-19T10:59:48.007Z,18.27
2023-05-19T11:02:14.565Z,18.25
2023-05-19T11:04:41.103Z,18.31
2023-05-19T11:07:07.558Z,18.36
2023-05-19T11:09:39.929Z,18.37
2023-05-19T11:12:06.885Z,18.40
2023-05-19T11:14:33.754Z,18.54
2023-05-19T11:17:00.360Z,18.72
2023-05-19T11:19:26.925Z,18.66
2023-05-19T11:21:53.415Z,18.82
2023-05-19T11:24:19.871Z,18.71
2023-05-19T11:26:46.660Z,18.68
2023-05-19T11:29:13.264Z,18.61
2023-05-19T11:31:39.705Z,18.48
2023-05-19T11:34:06.183Z,18.57
2023-05-19T11:36:32.630Z,18.64
2023-05-19T11:38:59.611Z,18.62
2023-05-19T11:41:26.198Z,18.65
2023-05-19T11:43:52.775Z,18.67
2023-05-19T11:46:19.420Z,18.71
2023-05-19T11:48:47.082Z,18.71
2023-05-19T11:51:13.934Z,18.85
2023-05-19T11:53:42.151Z,18.81
2023-05-19T11:56:08.614Z,19.01
2023-05-19T11:58:35.042Z,19.05
2023-05-19T12:01:01.473Z,19.15
2023-05-19T12:03:28.627Z,19.17
2023-05-19T12:05:55.357Z,19.11
2023-05-19T12:08:21.885Z,19.00
2023-05-19T12:10:48.340Z,18.86
2023-05-19T12:13:14.804Z,18.72
2023-05-19T12:15:41.278Z,18.66
2023-05-19T12:18:07.932Z,18.73
2023-05-19T12:20:34.435Z,18.83
2023-05-19T12:23:01.005Z,19.02
2023-05-19T12:25:27.563Z,19.10
2023-05-19T12:27:55.986Z,19.11
2023-05-19T12:30:22.997Z,19.18
2023-05-19T12:32:51.553Z,19.13
2023-05-19T12:35:18.003Z,19.09
2023-05-19T12:37:44.507Z,19.13
2023-05-19T12:40:10.982Z,19.22
2023-05-19T12:42:38.924Z,19.31
2023-05-19T12:45:05.550Z,19.39
2023-05-19T12:47:33.183Z,19.45
2023-05-19T12:49:59.700Z,19.35
2023-05-19T12:52:26.181Z,19.23
2023-05-19T12:54:52.673Z,19.12
2023-05-19T12:57:19.176Z,19.04
2023-05-19T12:59:47.118Z,18.99
2023-05-19T13:02:13.792Z,19.07
2023-05-19T13:04:40.319Z,19.04
2023-05-19T13:07:06.744Z,18.94
2023-05-19T13:09:33.211Z,18.91
2023-05-19T13:11:59.630Z,18.95
2023-05-19T13:14:26.082Z,18.94
2023-05-19T13:16:52.606Z,18.90
2023-05-19T13:19:25.090Z,18.94
2023-05-19T13:21:52.335Z,18.94
2023-05-19T13:24:18.865Z,18.83
2023-05-19T13:26:45.367Z,18.79
2023-05-19T13:29:11.799Z,18.76
2023-05-19T13:31:38.272Z,18.77
2023-05-19T13:34:05.458Z,18.74
2023-05-19T13:36:31.931Z,18.76
2023-05-19T13:38:58.422Z,18.77
2023-05-19T13:41:24.889Z,18.66
2023-05-19T13:43:51.399Z,18.63
2023-05-19T13:46:19.240Z,18.55
2023-05-19T13:48:47.061Z,18.47
2023-05-19T13:51:13.517Z,18.40
2023-05-19T13:53:39.974Z,18.32
2023-05-19T13:56:06.420Z,18.20
2023-05-19T13:58:32.842Z,18.14
2023-05-19T14:00:59.293Z,18.15
2023-05-19T14:03:25.893Z,18.10
2023-05-19T14:05:52.389Z,17.99
2023-05-19T14:08:18.856Z,17.90
2023-05-19T14:10:45.341Z,17.86
2023-05-19T14:13:31.617Z,17.78
2023-05-19T14:15:58.261Z,17.70
2023-05-19T14:18:25.109Z,17.55
2023-05-19T14:20:51.687Z,17.56
2023-05-19T14:23:18.277Z,17.50
2023-05-19T14:25:44.752Z,17.47
2023-05-19T14:28:11.448Z,17.45
2023-05-19T14:30:37.915Z,17.40
2023-05-19T14:33:04.682Z,17.39
2023-05-19T14:35:31.186Z,17.34
2023-05-19T14:37:57.619Z,17.31
2023-05-19T14:40:24.060Z,17.28
2023-05-19T14:42:51.004Z,17.26
2023-05-19T14:45:17.451Z,17.22
2023-05-19T14:47:44.304Z,17.20
2023-05-19T14:50:11.833Z,17.11
2023-05-19T14:52:38.320Z,17.02
2023-05-19T14:55:05.197Z,16.94
2023-05-19T14:57:32.582Z,16.94
2023-05-19T14:59:59.069Z,16.88
2023-05-19T15:02:27.431Z,16.81
2023-05-19T15:04:55.154Z,16.73
2023-05-19T15:07:21.609Z,16.66
2023-05-19T15:09:48.070Z,16.60
2023-05-19T15:12:14.545Z,16.53
2023-05-19T15:14:41.004Z,16.42
2023-05-19T15:17:08.473Z,16.34
2023-05-19T15:19:35.942Z,16.31
2023-05-19T15:22:02.453Z,16.28
2023-05-19T15:24:29.024Z,16.26
2023-05-19T15:26:55.457Z,16.26
2023-05-19T15:29:21.937Z,16.25
2023-05-19T15:31:48.951Z,16.22
2023-05-19T15:34:15.555Z,16.23
2023-05-19T15:36:42.013Z,16.22
2023-05-19T15:39:08.722Z,16.20
2023-05-19T15:41:37.305Z,16.11
2023-05-19T15:44:03.755Z,16.13
2023-05-19T15:46:30.234Z,16.12
2023-05-19T15:48:56.750Z,16.16
2023-05-19T15:51:23.225Z,16.11
2023-05-19T15:53:50.290Z,16.04
2023-05-19T15:56:17.884Z,16.04
2023-05-19T15:58:44.330Z,16.02
2023-05-19T16:01:10.775Z,16.04
2023-05-19T16:03:37.294Z,16.04
2023-05-19T16:06:03.851Z,16.06
2023-05-19T16:08:30.819Z,16.12
2023-05-19T16:10:57.704Z,16.14
2023-05-19T16:13:24.167Z,16.14
2023-05-19T16:15:50.662Z,16.07
2023-05-19T16:18:17.203Z,16.06
2023-05-19T16:20:43.648Z,16.00
2023-05-19T16:23:10.095Z,15.92
2023-05-19T16:25:36.558Z,15.88
2023-05-19T16:28:03.026Z,15.83
2023-05-19T16:30:29.463Z,15.81
2023-05-19T16:32:56.037Z,15.81
2023-05-19T16:35:22.774Z,15.78
2023-05-19T16:37:49.264Z,15.73
2023-05-19T16:40:16.514Z,15.71
2023-05-19T16:42:45.110Z,15.67
2023-05-19T16:45:11.571Z,15.60
2023-05-19T16:47:38.089Z,15.60
2023-05-19T16:50:04.603Z,15.63
2023-05-19T16:52:31.097Z,15.61
2023-05-19T16:54:58.077Z,15.59
2023-05-19T16:57:24.662Z,15.59
2023-05-19T16:59:51.243Z,15.53
2023-05-19T17:02:17.718Z,15.50
2023-05-19T17:04:44.212Z,15.42
2023-05-19T17:07:10.686Z,15.40
2023-05-19T17:09:37.623Z,15.39
2023-05-19T17:12:04.219Z,15.39
2023-05-19T17:14:30.705Z,15.36
2023-05-19T17:16:57.454Z,15.33
2023-05-19T17:19:24.032Z,15.31
2023-05-19T17:21:51.569Z,15.29
2023-05-19T17:24:18.433Z,15.31
2023-05-19T17:26:45.860Z,15.34
2023-05-19T17:29:13.351Z,15.35
2023-05-19T17:31:39.863Z,15.29
2023-05-19T17:34:06.375Z,15.25
2023-05-19T17:36:33.126Z,15.25
2023-05-19T17:38:59.576Z,15.26
2023-05-19T17:41:26.046Z,15.24
2023-05-19T17:43:52.551Z,15.29
2023-05-19T17:46:19.532Z,15.24
2023-05-19T17:48:47.096Z,15.23
2023-05-19T17:51:13.708Z,15.24
2023-05-19T17:53:40.252Z,15.23
2023-05-19T17:56:06.793Z,15.25
2023-05-19T17:58:33.502Z,15.23
2023-05-19T18:00:59.970Z,15.22
2023-05-19T18:03:26.586Z,15.20
2023-05-19T18:05:53.131Z,15.16
2023-05-19T18:08:19.854Z,15.09
2023-05-19T18:10:46.335Z,15.05
2023-05-19T18:13:12.769Z,15.07
2023-05-19T18:15:39.229Z,15.05
2023-05-19T18:18:05.731Z,15.06
2023-05-19T18:20:33.089Z,15.06
2023-05-19T18:23:00.411Z,15.02
2023-05-19T18:25:26.902Z,14.96
2023-05-19T18:27:53.928Z,14.94
2023-05-19T18:30:20.367Z,14.89
2023-05-19T18:32:46.939Z,14.89
2023-05-19T18:35:13.479Z,14.85
2023-05-19T18:37:39.948Z,14.80
2023-05-19T18:40:06.429Z,14.74
2023-05-19T18:42:32.895Z,14.72
2023-05-19T18:44:59.718Z,14.70
2023-05-19T18:47:26.146Z,14.70
2023-05-19T18:49:52.896Z,14.66
2023-05-19T18:52:19.461Z,14.67
2023-05-19T18:54:45.941Z,14.66
2023-05-19T18:57:12.685Z,14.66
2023-05-19T18:59:40.261Z,14.64
2023-05-19T19:02:06.841Z,14.58
2023-05-19T19:04:33.368Z,14.55
2023-05-19T19:06:59.859Z,14.52
2023-05-19T19:09:26.608Z,14.51
2023-05-19T19:11:53.191Z,14.52
2023-05-19T19:14:19.660Z,14.53
2023-05-19T19:16:46.396Z,14.52
2023-05-19T19:19:14.109Z,14.51
2023-05-19T19:21:40.582Z,14.48
2023-05-19T19:24:07.042Z,14.37
2023-05-19T19:26:33.502Z,14.27
2023-05-19T19:28:59.939Z,14.29
2023-05-19T19:31:26.918Z,14.33
2023-05-19T19:33:53.420Z,14.30
2023-05-19T19:36:19.905Z,14.31
2023-05-19T19:38:46.376Z,14.38
2023-05-19T19:41:13.253Z,14.32
2023-05-19T19:43:39.846Z,14.31
2023-05-19T19:46:06.433Z,14.30
2023-05-19T19:48:32.939Z,14.28
2023-05-19T19:50:59.429Z,14.30
2023-05-19T19:53:25.873Z,14.25
2023-05-19T19:55:52.810Z,14.24
2023-05-19T19:58:19.282Z,14.18
2023-05-19T20:00:45.753Z,14.13
2023-05-19T20:03:12.285Z,14.22
2023-05-19T20:05:39.182Z,14.14
2023-05-19T20:08:05.750Z,14.14
2023-05-19T20:10:33.558Z,14.12
2023-05-19T20:13:00.191Z,14.09
2023-05-19T20:15:26.670Z,14.10
2023-05-19T20:17:53.197Z,14.10
2023-05-19T20:20:21.698Z,14.16
2023-05-19T20:22:48.142Z,14.16
2023-05-19T20:25:14.568Z,14.16
2023-05-19T20:27:41.483Z,14.10
2023-05-19T20:30:07.963Z,14.09
2023-05-19T20:32:34.594Z,14.08
2023-05-19T20:35:01.098Z,14.07
2023-05-19T20:37:27.538Z,14.07
2023-05-19T20:39:53.998Z,14.06
2023-05-19T20:42:21.021Z,14.05
2023-05-19T20:44:49.700Z,14.01
2023-05-19T20:47:16.136Z,14.01
2023-05-19T20:49:42.580Z,14.00
2023-05-19T20:52:09.102Z,14.02
2023-05-19T20:54:35.558Z,14.00
2023-05-19T20:57:02.052Z,14.04
2023-05-19T20:59:29.135Z,14.03
2023-05-19T21:01:55.625Z,13.99
2023-05-19T21:04:23.442Z,13.94
2023-05-19T21:06:49.957Z,13.91
2023-05-19T21:09:16.447Z,13.94
2023-05-19T21:11:42.885Z,13.92
2023-05-19T21:14:09.380Z,13.93
2023-05-19T21:16:36.308Z,13.91
2023-05-19T21:19:03.947Z,13.85
2023-05-19T21:21:30.530Z,13.82
2023-05-19T21:23:57.046Z,13.75
2023-05-19T21:26:24.682Z,13.75
2023-05-19T21:28:51.124Z,13.77
2023-05-19T21:31:17.991Z,13.82
2023-05-19T21:33:45.466Z,13.76
2023-05-19T21:36:11.940Z,13.68
2023-05-19T21:38:38.417Z,13.67
2023-05-19T21:41:04.868Z,13.65
2023-05-19T21:43:31.324Z,13.61
2023-05-19T21:45:57.801Z,13.63
2023-05-19T21:48:24.334Z,13.59
2023-05-19T21:50:50.884Z,13.52
2023-05-19T21:53:18.176Z,13.53
2023-05-19T21:55:44.778Z,13.53
2023-05-19T21:58:11.245Z,13.49
2023-05-19T22:00:39.015Z,13.52
2023-05-19T22:03:07.824Z,13.57
2023-05-19T22:05:35.343Z,13.60
2023-05-19T22:08:01.931Z,13.61
2023-05-19T22:10:28.400Z,13.59
2023-05-19T22:12:55.142Z,13.58
2023-05-19T22:15:22.573Z,13.58
2023-05-19T22:17:49.063Z,13.59
2023-05-19T22:20:15.521Z,13.60
2023-05-19T22:22:41.990Z,13.59
2023-05-19T22:25:08.448Z,13.59
2023-05-19T22:27:35.494Z,13.55
2023-05-19T22:30:02.108Z,13.55
2023-05-19T22:32:28.587Z,13.52
2023-05-19T22:34:55.110Z,13.51
2023-05-19T22:37:21.832Z,13.47
2023-05-19T22:39:48.325Z,13.44
2023-05-19T22:42:14.799Z,13.46
2023-05-19T22:44:41.229Z,13.47
2023-05-19T22:47:07.669Z,13.48
2023-05-19T22:49:34.182Z,13.47
2023-05-19T22:52:00.629Z,13.48
2023-05-19T22:54:27.977Z,13.47
2023-05-19T22:56:54.429Z,13.47
2023-05-19T22:59:20.910Z,13.45
2023-05-19T23:01:47.407Z,13.46
2023-05-19T23:04:14.023Z,13.44
2023-05-19T23:06:40.878Z,13.41
2023-05-19T23:09:07.370Z,13.44
2023-05-19T23:11:33.786Z,13.44
2023-05-19T23:14:00.292Z,13.43
2023-05-19T23:16:26.775Z,13.46
2023-05-19T23:18:53.297Z,13.47
2023-05-19T23:21:19.774Z,13.49
2023-05-19T23:23:47.026Z,13.51
2023-05-19T23:26:13.550Z,13.48
2023-05-19T23:28:40.110Z,13.46
2023-05-19T23:31:07.849Z,13.42
2023-05-19T23:33:35.387Z,13.41
2023-05-19T23:36:03.990Z,13.41
2023-05-19T23:38:30.577Z,13.42
2023-05-19T23:40:57.045Z,13.38
2023-05-19T23:43:23.784Z,13.35
2023-05-19T23:45:50.362Z,13.26
2023-05-19T23:48:16.822Z,13.31
2023-05-19T23:50:43.569Z,13.15
2023-05-19T23:53:10.157Z,13.17
2023-05-19T23:55:38.752Z,13.04
2023-05-19T23:58:06.351Z,13.00
